Clarence, Louisiana
Current Conditions -  °F | °C
As of 11:35 AM on Friday 19 Dec 2014 (Local Time) from KIER Reporting Station
Moderate Rain Moderate Rain  
Wind Chill: 46°   Ceiling: 800
Heat Index: 49°   Visibility: 5mi
Dew Point: 49°   Wind: 7mph
Humidity: 98%   Direction: 360°N
Pressure: 30.18"   Gusts: NA
Location:  31.82°N, 93.03°W
Report Text: KIER 191735Z AUTO 36006KT 5SM RA OVC008 10/09 A3018 RMK AO2 T00960093
Loading
Personal Weather Stations






























Interactive Weather Map New forecast layout! Learn more

10-Day Weather Forecast

Advertisements
Track Severe Weather on mobile